sensor_id;sensor_type;location;lat;lon;timestamp;P1;durP1;ratioP1;P2;durP2;ratioP2
66870;SDS011;53780;44.998;9.926;2023-07-13T00:00:55;6.38;;;1.42;;
66870;SDS011;53780;44.998;9.926;2023-07-13T00:03:59;3.88;;;1.35;;
66870;SDS011;53780;44.998;9.926;2023-07-13T00:07:04;6.43;;;1.23;;
66870;SDS011;53780;44.998;9.926;2023-07-13T00:10:09;7.88;;;1.40;;
66870;SDS011;53780;44.998;9.926;2023-07-13T00:13:13;5.68;;;1.20;;
66870;SDS011;53780;44.998;9.926;2023-07-13T00:16:17;5.45;;;1.20;;
66870;SDS011;53780;44.998;9.926;2023-07-13T00:19:22;5.32;;;1.10;;
66870;SDS011;53780;44.998;9.926;2023-07-13T00:22:26;4.50;;;1.10;;
66870;SDS011;53780;44.998;9.926;2023-07-13T00:25:29;5.38;;;1.25;;
66870;SDS011;53780;44.998;9.926;2023-07-13T00:28:34;6.70;;;1.35;;
66870;SDS011;53780;44.998;9.926;2023-07-13T00:31:38;5.45;;;1.30;;
66870;SDS011;53780;44.998;9.926;2023-07-13T00:34:42;5.15;;;1.30;;
66870;SDS011;53780;44.998;9.926;2023-07-13T00:37:46;6.47;;;1.30;;
66870;SDS011;53780;44.998;9.926;2023-07-13T00:40:52;5.82;;;1.30;;
66870;SDS011;53780;44.998;9.926;2023-07-13T00:43:57;4.00;;;1.10;;
66870;SDS011;53780;44.998;9.926;2023-07-13T00:47:02;5.75;;;1.40;;
66870;SDS011;53780;44.998;9.926;2023-07-13T00:50:08;7.30;;;1.27;;
66870;SDS011;53780;44.998;9.926;2023-07-13T00:53:13;4.07;;;1.10;;
66870;SDS011;53780;44.998;9.926;2023-07-13T00:56:17;6.47;;;1.05;;
66870;SDS011;53780;44.998;9.926;2023-07-13T00:59:21;5.05;;;1.00;;
66870;SDS011;53780;44.998;9.926;2023-07-13T01:02:27;6.15;;;1.45;;
66870;SDS011;53780;44.998;9.926;2023-07-13T01:05:33;6.50;;;1.10;;
66870;SDS011;53780;44.998;9.926;2023-07-13T01:08:38;4.23;;;1.10;;
66870;SDS011;53780;44.998;9.926;2023-07-13T01:11:43;4.80;;;1.20;;
66870;SDS011;53780;44.998;9.926;2023-07-13T01:14:48;5.20;;;1.30;;
66870;SDS011;53780;44.998;9.926;2023-07-13T01:17:52;7.70;;;1.17;;
66870;SDS011;53780;44.998;9.926;2023-07-13T01:20:57;4.15;;;1.30;;
66870;SDS011;53780;44.998;9.926;2023-07-13T01:24:02;9.33;;;1.30;;
66870;SDS011;53780;44.998;9.926;2023-07-13T01:27:07;6.28;;;1.20;;
66870;SDS011;53780;44.998;9.926;2023-07-13T01:30:12;5.10;;;1.55;;
66870;SDS011;53780;44.998;9.926;2023-07-13T01:33:17;6.72;;;1.52;;
66870;SDS011;53780;44.998;9.926;2023-07-13T01:36:21;6.38;;;1.65;;
66870;SDS011;53780;44.998;9.926;2023-07-13T01:39:25;6.57;;;1.37;;
66870;SDS011;53780;44.998;9.926;2023-07-13T01:42:28;4.97;;;1.25;;
66870;SDS011;53780;44.998;9.926;2023-07-13T01:45:34;5.28;;;1.38;;
66870;SDS011;53780;44.998;9.926;2023-07-13T01:48:39;5.20;;;1.38;;
66870;SDS011;53780;44.998;9.926;2023-07-13T01:51:43;5.57;;;1.60;;
66870;SDS011;53780;44.998;9.926;2023-07-13T01:54:48;4.07;;;1.30;;
66870;SDS011;53780;44.998;9.926;2023-07-13T01:57:54;7.53;;;2.03;;
66870;SDS011;53780;44.998;9.926;2023-07-13T02:00:58;7.75;;;2.40;;
66870;SDS011;53780;44.998;9.926;2023-07-13T02:04:02;5.50;;;1.98;;
66870;SDS011;53780;44.998;9.926;2023-07-13T02:07:10;7.45;;;2.25;;
66870;SDS011;53780;44.998;9.926;2023-07-13T02:10:14;5.40;;;1.90;;
66870;SDS011;53780;44.998;9.926;2023-07-13T02:13:18;6.10;;;2.03;;
66870;SDS011;53780;44.998;9.926;2023-07-13T02:16:22;5.70;;;2.13;;
66870;SDS011;53780;44.998;9.926;2023-07-13T02:19:25;5.50;;;2.00;;
66870;SDS011;53780;44.998;9.926;2023-07-13T02:22:30;6.95;;;2.30;;
66870;SDS011;53780;44.998;9.926;2023-07-13T02:25:34;5.97;;;2.40;;
66870;SDS011;53780;44.998;9.926;2023-07-13T02:28:38;5.93;;;2.95;;
66870;SDS011;53780;44.998;9.926;2023-07-13T02:31:41;7.88;;;2.45;;
66870;SDS011;53780;44.998;9.926;2023-07-13T02:34:46;7.45;;;2.55;;
66870;SDS011;53780;44.998;9.926;2023-07-13T02:37:49;6.75;;;3.08;;
66870;SDS011;53780;44.998;9.926;2023-07-13T02:40:53;6.63;;;2.73;;
66870;SDS011;53780;44.998;9.926;2023-07-13T02:43:57;5.38;;;2.50;;
66870;SDS011;53780;44.998;9.926;2023-07-13T02:47:06;7.60;;;3.00;;
66870;SDS011;53780;44.998;9.926;2023-07-13T02:50:10;7.35;;;2.40;;
66870;SDS011;53780;44.998;9.926;2023-07-13T02:53:14;7.07;;;2.60;;
66870;SDS011;53780;44.998;9.926;2023-07-13T02:56:19;5.53;;;2.07;;
66870;SDS011;53780;44.998;9.926;2023-07-13T02:59:25;7.50;;;2.50;;
66870;SDS011;53780;44.998;9.926;2023-07-13T03:02:29;5.20;;;2.30;;
66870;SDS011;53780;44.998;9.926;2023-07-13T03:05:37;6.65;;;2.20;;
66870;SDS011;53780;44.998;9.926;2023-07-13T03:08:42;7.53;;;2.50;;
66870;SDS011;53780;44.998;9.926;2023-07-13T03:11:46;9.40;;;2.90;;
66870;SDS011;53780;44.998;9.926;2023-07-13T03:14:58;10.13;;;3.28;;
66870;SDS011;53780;44.998;9.926;2023-07-13T03:18:02;11.60;;;3.40;;
66870;SDS011;53780;44.998;9.926;2023-07-13T03:21:06;8.63;;;3.55;;
66870;SDS011;53780;44.998;9.926;2023-07-13T03:24:10;7.00;;;3.08;;
66870;SDS011;53780;44.998;9.926;2023-07-13T03:27:15;8.30;;;3.13;;
66870;SDS011;53780;44.998;9.926;2023-07-13T03:30:20;7.30;;;2.88;;
66870;SDS011;53780;44.998;9.926;2023-07-13T03:33:24;8.85;;;2.90;;
66870;SDS011;53780;44.998;9.926;2023-07-13T03:36:29;7.38;;;3.05;;
66870;SDS011;53780;44.998;9.926;2023-07-13T03:39:36;8.10;;;3.13;;
66870;SDS011;53780;44.998;9.926;2023-07-13T03:42:40;6.80;;;2.60;;
66870;SDS011;53780;44.998;9.926;2023-07-13T03:45:44;7.35;;;2.72;;
66870;SDS011;53780;44.998;9.926;2023-07-13T03:48:48;7.50;;;3.03;;
66870;SDS011;53780;44.998;9.926;2023-07-13T03:51:51;8.40;;;2.80;;
66870;SDS011;53780;44.998;9.926;2023-07-13T03:54:56;7.15;;;2.58;;
66870;SDS011;53780;44.998;9.926;2023-07-13T04:01:28;6.60;;;2.10;;
66870;SDS011;53780;44.998;9.926;2023-07-13T04:04:32;5.88;;;2.90;;
66870;SDS011;53780;44.998;9.926;2023-07-13T04:07:35;7.07;;;3.13;;
66870;SDS011;53780;44.998;9.926;2023-07-13T04:10:39;8.55;;;3.50;;
66870;SDS011;53780;44.998;9.926;2023-07-13T04:13:43;10.93;;;3.33;;
66870;SDS011;53780;44.998;9.926;2023-07-13T04:16:47;6.97;;;3.10;;
66870;SDS011;53780;44.998;9.926;2023-07-13T04:19:51;6.60;;;2.90;;
66870;SDS011;53780;44.998;9.926;2023-07-13T04:22:55;7.15;;;2.67;;
66870;SDS011;53780;44.998;9.926;2023-07-13T04:25:59;7.80;;;2.50;;
66870;SDS011;53780;44.998;9.926;2023-07-13T04:29:02;5.70;;;2.37;;
66870;SDS011;53780;44.998;9.926;2023-07-13T04:32:07;6.63;;;2.60;;
66870;SDS011;53780;44.998;9.926;2023-07-13T04:35:15;7.28;;;2.95;;
66870;SDS011;53780;44.998;9.926;2023-07-13T04:38:19;10.52;;;3.25;;
66870;SDS011;53780;44.998;9.926;2023-07-13T04:41:22;11.70;;;3.80;;
66870;SDS011;53780;44.998;9.926;2023-07-13T04:44:26;9.23;;;3.77;;
66870;SDS011;53780;44.998;9.926;2023-07-13T04:47:30;10.43;;;3.85;;
66870;SDS011;53780;44.998;9.926;2023-07-13T04:50:37;9.90;;;3.83;;
66870;SDS011;53780;44.998;9.926;2023-07-13T04:53:41;9.05;;;3.72;;
66870;SDS011;53780;44.998;9.926;2023-07-13T04:56:44;7.80;;;3.50;;
66870;SDS011;53780;44.998;9.926;2023-07-13T04:59:48;12.20;;;3.60;;
66870;SDS011;53780;44.998;9.926;2023-07-13T05:02:53;9.85;;;3.60;;
66870;SDS011;53780;44.998;9.926;2023-07-13T05:06:00;8.70;;;3.20;;
66870;SDS011;53780;44.998;9.926;2023-07-13T05:09:06;9.85;;;3.30;;
66870;SDS011;53780;44.998;9.926;2023-07-13T05:12:10;11.68;;;3.42;;
66870;SDS011;53780;44.998;9.926;2023-07-13T05:15:14;10.70;;;3.60;;
66870;SDS011;53780;44.998;9.926;2023-07-13T05:18:18;8.25;;;3.30;;
66870;SDS011;53780;44.998;9.926;2023-07-13T05:21:22;10.25;;;3.25;;
66870;SDS011;53780;44.998;9.926;2023-07-13T05:24:26;6.93;;;3.30;;
66870;SDS011;53780;44.998;9.926;2023-07-13T05:27:31;8.50;;;3.13;;
66870;SDS011;53780;44.998;9.926;2023-07-13T05:30:35;8.57;;;3.17;;
66870;SDS011;53780;44.998;9.926;2023-07-13T05:33:39;9.48;;;3.20;;
66870;SDS011;53780;44.998;9.926;2023-07-13T05:36:43;8.45;;;3.30;;
66870;SDS011;53780;44.998;9.926;2023-07-13T05:39:47;8.60;;;3.53;;
66870;SDS011;53780;44.998;9.926;2023-07-13T05:42:50;10.43;;;3.38;;
66870;SDS011;53780;44.998;9.926;2023-07-13T05:45:55;9.80;;;3.60;;
66870;SDS011;53780;44.998;9.926;2023-07-13T05:49:00;9.75;;;3.60;;
66870;SDS011;53780;44.998;9.926;2023-07-13T05:52:04;7.85;;;3.58;;
66870;SDS011;53780;44.998;9.926;2023-07-13T05:55:08;9.18;;;3.45;;
66870;SDS011;53780;44.998;9.926;2023-07-13T05:58:13;8.52;;;4.00;;
66870;SDS011;53780;44.998;9.926;2023-07-13T06:01:17;9.37;;;4.00;;
66870;SDS011;53780;44.998;9.926;2023-07-13T06:04:22;10.07;;;3.70;;
66870;SDS011;53780;44.998;9.926;2023-07-13T06:07:26;8.80;;;3.95;;
66870;SDS011;53780;44.998;9.926;2023-07-13T06:10:34;9.85;;;4.10;;
66870;SDS011;53780;44.998;9.926;2023-07-13T06:13:39;10.52;;;3.85;;
66870;SDS011;53780;44.998;9.926;2023-07-13T06:16:42;9.80;;;3.73;;
66870;SDS011;53780;44.998;9.926;2023-07-13T06:19:46;10.55;;;3.80;;
66870;SDS011;53780;44.998;9.926;2023-07-13T06:22:50;8.90;;;3.97;;
66870;SDS011;53780;44.998;9.926;2023-07-13T06:25:54;8.55;;;4.07;;
66870;SDS011;53780;44.998;9.926;2023-07-13T06:28:57;7.65;;;3.83;;
66870;SDS011;53780;44.998;9.926;2023-07-13T06:32:01;10.53;;;4.20;;
66870;SDS011;53780;44.998;9.926;2023-07-13T06:35:05;10.73;;;4.05;;
66870;SDS011;53780;44.998;9.926;2023-07-13T06:38:10;10.55;;;4.57;;
66870;SDS011;53780;44.998;9.926;2023-07-13T06:41:13;12.43;;;5.00;;
66870;SDS011;53780;44.998;9.926;2023-07-13T06:44:17;12.85;;;4.75;;
66870;SDS011;53780;44.998;9.926;2023-07-13T06:47:21;12.83;;;4.73;;
66870;SDS011;53780;44.998;9.926;2023-07-13T06:50:24;11.75;;;5.03;;
66870;SDS011;53780;44.998;9.926;2023-07-13T06:53:29;11.07;;;5.07;;
66870;SDS011;53780;44.998;9.926;2023-07-13T06:56:34;11.50;;;4.55;;
66870;SDS011;53780;44.998;9.926;2023-07-13T06:59:38;13.57;;;4.82;;
66870;SDS011;53780;44.998;9.926;2023-07-13T07:02:42;12.83;;;5.10;;
66870;SDS011;53780;44.998;9.926;2023-07-13T07:05:46;11.73;;;4.78;;
66870;SDS011;53780;44.998;9.926;2023-07-13T07:08:50;12.07;;;5.15;;
66870;SDS011;53780;44.998;9.926;2023-07-13T07:11:55;14.85;;;4.68;;
66870;SDS011;53780;44.998;9.926;2023-07-13T07:14:59;13.35;;;5.15;;
66870;SDS011;53780;44.998;9.926;2023-07-13T07:18:03;11.20;;;4.77;;
66870;SDS011;53780;44.998;9.926;2023-07-13T07:21:06;9.70;;;4.38;;
66870;SDS011;53780;44.998;9.926;2023-07-13T07:24:10;13.35;;;4.45;;
66870;SDS011;53780;44.998;9.926;2023-07-13T07:27:14;11.40;;;4.28;;
66870;SDS011;53780;44.998;9.926;2023-07-13T07:30:18;10.57;;;4.03;;
66870;SDS011;53780;44.998;9.926;2023-07-13T07:33:22;10.33;;;3.57;;
66870;SDS011;53780;44.998;9.926;2023-07-13T07:36:26;11.18;;;3.88;;
66870;SDS011;53780;44.998;9.926;2023-07-13T07:39:31;10.07;;;4.03;;
66870;SDS011;53780;44.998;9.926;2023-07-13T07:42:35;13.70;;;3.80;;
66870;SDS011;53780;44.998;9.926;2023-07-13T07:45:39;11.43;;;3.85;;
66870;SDS011;53780;44.998;9.926;2023-07-13T07:48:43;14.17;;;4.87;;
66870;SDS011;53780;44.998;9.926;2023-07-13T07:51:47;12.52;;;4.78;;
66870;SDS011;53780;44.998;9.926;2023-07-13T07:54:51;9.43;;;4.20;;
66870;SDS011;53780;44.998;9.926;2023-07-13T07:57:56;10.98;;;4.07;;
66870;SDS011;53780;44.998;9.926;2023-07-13T08:01:04;13.85;;;4.85;;
66870;SDS011;53780;44.998;9.926;2023-07-13T08:04:09;11.30;;;4.63;;
66870;SDS011;53780;44.998;9.926;2023-07-13T08:07:13;11.98;;;4.20;;
66870;SDS011;53780;44.998;9.926;2023-07-13T08:10:17;11.50;;;4.72;;
66870;SDS011;53780;44.998;9.926;2023-07-13T08:13:20;11.68;;;5.20;;
66870;SDS011;53780;44.998;9.926;2023-07-13T08:16:24;11.80;;;5.05;;
66870;SDS011;53780;44.998;9.926;2023-07-13T08:19:29;10.37;;;5.00;;
66870;SDS011;53780;44.998;9.926;2023-07-13T08:22:33;11.77;;;4.72;;
66870;SDS011;53780;44.998;9.926;2023-07-13T08:25:37;13.88;;;5.63;;
66870;SDS011;53780;44.998;9.926;2023-07-13T08:28:41;13.50;;;5.38;;
66870;SDS011;53780;44.998;9.926;2023-07-13T08:31:45;14.07;;;5.10;;
66870;SDS011;53780;44.998;9.926;2023-07-13T08:34:49;13.87;;;4.50;;
66870;SDS011;53780;44.998;9.926;2023-07-13T08:37:53;11.93;;;4.55;;
66870;SDS011;53780;44.998;9.926;2023-07-13T08:40:57;12.48;;;4.30;;
66870;SDS011;53780;44.998;9.926;2023-07-13T08:44:01;11.25;;;4.60;;
66870;SDS011;53780;44.998;9.926;2023-07-13T08:47:08;9.95;;;4.35;;
66870;SDS011;53780;44.998;9.926;2023-07-13T08:50:15;10.43;;;3.87;;
66870;SDS011;53780;44.998;9.926;2023-07-13T08:53:22;11.00;;;4.32;;
66870;SDS011;53780;44.998;9.926;2023-07-13T08:56:32;9.48;;;4.18;;
66870;SDS011;53780;44.998;9.926;2023-07-13T08:59:37;14.82;;;4.60;;
66870;SDS011;53780;44.998;9.926;2023-07-13T09:02:45;7.70;;;3.75;;
66870;SDS011;53780;44.998;9.926;2023-07-13T09:05:59;9.83;;;3.80;;
66870;SDS011;53780;44.998;9.926;2023-07-13T09:09:20;10.43;;;3.95;;
66870;SDS011;53780;44.998;9.926;2023-07-13T09:16:08;9.80;;;4.03;;
66870;SDS011;53780;44.998;9.926;2023-07-13T09:19:15;10.57;;;3.50;;
66870;SDS011;53780;44.998;9.926;2023-07-13T09:22:26;9.60;;;3.30;;
66870;SDS011;53780;44.998;9.926;2023-07-13T09:25:35;10.95;;;4.03;;
66870;SDS011;53780;44.998;9.926;2023-07-13T09:28:44;10.05;;;3.70;;
66870;SDS011;53780;44.998;9.926;2023-07-13T09:31:52;8.20;;;3.47;;
66870;SDS011;53780;44.998;9.926;2023-07-13T09:34:59;9.60;;;3.45;;
66870;SDS011;53780;44.998;9.926;2023-07-13T09:38:14;11.43;;;4.33;;
66870;SDS011;53780;44.998;9.926;2023-07-13T09:41:26;13.35;;;4.68;;
66870;SDS011;53780;44.998;9.926;2023-07-13T09:48:07;10.18;;;4.18;;
66870;SDS011;53780;44.998;9.926;2023-07-13T09:51:17;12.40;;;4.50;;
66870;SDS011;53780;44.998;9.926;2023-07-13T09:54:23;11.67;;;4.50;;
66870;SDS011;53780;44.998;9.926;2023-07-13T09:57:28;13.27;;;4.63;;
66870;SDS011;53780;44.998;9.926;2023-07-13T10:00:33;11.63;;;4.22;;
66870;SDS011;53780;44.998;9.926;2023-07-13T10:03:37;10.77;;;4.30;;
66870;SDS011;53780;44.998;9.926;2023-07-13T10:06:41;11.73;;;4.47;;
66870;SDS011;53780;44.998;9.926;2023-07-13T10:09:46;9.97;;;3.83;;
66870;SDS011;53780;44.998;9.926;2023-07-13T10:12:50;8.98;;;3.83;;
66870;SDS011;53780;44.998;9.926;2023-07-13T10:15:55;9.55;;;4.30;;
66870;SDS011;53780;44.998;9.926;2023-07-13T10:19:14;10.10;;;4.40;;
66870;SDS011;53780;44.998;9.926;2023-07-13T10:22:27;10.70;;;4.07;;
66870;SDS011;53780;44.998;9.926;2023-07-13T10:25:37;10.03;;;3.40;;
66870;SDS011;53780;44.998;9.926;2023-07-13T10:28:49;13.93;;;4.40;;
66870;SDS011;53780;44.998;9.926;2023-07-13T10:31:58;11.07;;;4.10;;
66870;SDS011;53780;44.998;9.926;2023-07-13T10:35:02;9.48;;;4.00;;
66870;SDS011;53780;44.998;9.926;2023-07-13T10:38:10;17.60;;;7.78;;
66870;SDS011;53780;44.998;9.926;2023-07-13T10:41:20;13.40;;;4.47;;
66870;SDS011;53780;44.998;9.926;2023-07-13T10:44:27;8.65;;;4.30;;
66870;SDS011;53780;44.998;9.926;2023-07-13T10:47:32;11.10;;;4.05;;
66870;SDS011;53780;44.998;9.926;2023-07-13T10:50:35;10.88;;;3.70;;
66870;SDS011;53780;44.998;9.926;2023-07-13T10:53:44;9.32;;;4.65;;
66870;SDS011;53780;44.998;9.926;2023-07-13T10:56:54;8.23;;;4.03;;
66870;SDS011;53780;44.998;9.926;2023-07-13T11:00:23;8.00;;;3.80;;
66870;SDS011;53780;44.998;9.926;2023-07-13T11:03:28;12.43;;;3.80;;
66870;SDS011;53780;44.998;9.926;2023-07-13T11:06:36;11.07;;;4.20;;
66870;SDS011;53780;44.998;9.926;2023-07-13T11:09:46;9.35;;;3.83;;
66870;SDS011;53780;44.998;9.926;2023-07-13T11:12:54;8.23;;;3.63;;
66870;SDS011;53780;44.998;9.926;2023-07-13T11:15:58;7.35;;;2.80;;
66870;SDS011;53780;44.998;9.926;2023-07-13T11:28:32;6.00;;;2.20;;
66870;SDS011;53780;44.998;9.926;2023-07-13T11:31:53;8.73;;;2.92;;
66870;SDS011;53780;44.998;9.926;2023-07-13T11:34:59;8.57;;;3.28;;
66870;SDS011;53780;44.998;9.926;2023-07-13T11:38:02;9.80;;;3.35;;
66870;SDS011;53780;44.998;9.926;2023-07-13T11:41:17;8.18;;;3.83;;
66870;SDS011;53780;44.998;9.926;2023-07-13T11:44:26;8.20;;;3.50;;
66870;SDS011;53780;44.998;9.926;2023-07-13T11:47:32;7.65;;;2.50;;
66870;SDS011;53780;44.998;9.926;2023-07-13T11:50:35;8.95;;;3.05;;
66870;SDS011;53780;44.998;9.926;2023-07-13T11:53:47;7.05;;;2.28;;
66870;SDS011;53780;44.998;9.926;2023-07-13T11:56:54;8.18;;;2.53;;
66870;SDS011;53780;44.998;9.926;2023-07-13T12:00:09;7.00;;;3.47;;
66870;SDS011;53780;44.998;9.926;2023-07-13T12:03:20;11.65;;;3.75;;
66870;SDS011;53780;44.998;9.926;2023-07-13T12:06:28;7.00;;;3.25;;
66870;SDS011;53780;44.998;9.926;2023-07-13T12:09:36;9.40;;;4.20;;
66870;SDS011;53780;44.998;9.926;2023-07-13T12:12:46;8.70;;;3.78;;
66870;SDS011;53780;44.998;9.926;2023-07-13T12:15:59;11.57;;;4.10;;
66870;SDS011;53780;44.998;9.926;2023-07-13T12:19:03;10.98;;;5.18;;
66870;SDS011;53780;44.998;9.926;2023-07-13T12:22:18;9.00;;;4.20;;
66870;SDS011;53780;44.998;9.926;2023-07-13T12:25:23;12.55;;;5.63;;
66870;SDS011;53780;44.998;9.926;2023-07-13T12:31:52;14.63;;;5.07;;
66870;SDS011;53780;44.998;9.926;2023-07-13T12:35:03;9.90;;;5.07;;
66870;SDS011;53780;44.998;9.926;2023-07-13T12:38:19;10.73;;;4.60;;
66870;SDS011;53780;44.998;9.926;2023-07-13T12:41:25;11.63;;;4.72;;
66870;SDS011;53780;44.998;9.926;2023-07-13T12:44:30;14.65;;;5.40;;
66870;SDS011;53780;44.998;9.926;2023-07-13T12:47:42;9.93;;;4.07;;
66870;SDS011;53780;44.998;9.926;2023-07-13T12:50:49;10.38;;;4.10;;
66870;SDS011;53780;44.998;9.926;2023-07-13T12:53:57;17.65;;;5.53;;
66870;SDS011;53780;44.998;9.926;2023-07-13T12:57:12;10.15;;;4.90;;
66870;SDS011;53780;44.998;9.926;2023-07-13T13:03:31;10.33;;;3.70;;
66870;SDS011;53780;44.998;9.926;2023-07-13T13:06:36;9.35;;;3.75;;
66870;SDS011;53780;44.998;9.926;2023-07-13T13:09:40;10.60;;;3.70;;
66870;SDS011;53780;44.998;9.926;2023-07-13T13:12:46;12.18;;;4.80;;
66870;SDS011;53780;44.998;9.926;2023-07-13T13:15:51;10.45;;;4.22;;
66870;SDS011;53780;44.998;9.926;2023-07-13T13:18:55;8.23;;;4.33;;
66870;SDS011;53780;44.998;9.926;2023-07-13T13:22:00;10.98;;;3.90;;
66870;SDS011;53780;44.998;9.926;2023-07-13T13:25:03;12.02;;;4.60;;
66870;SDS011;53780;44.998;9.926;2023-07-13T13:28:15;7.97;;;3.83;;
66870;SDS011;53780;44.998;9.926;2023-07-13T13:31:21;7.35;;;3.97;;
66870;SDS011;53780;44.998;9.926;2023-07-13T13:34:25;8.63;;;3.93;;
66870;SDS011;53780;44.998;9.926;2023-07-13T13:37:29;10.02;;;4.00;;
66870;SDS011;53780;44.998;9.926;2023-07-13T13:40:33;10.02;;;4.10;;
66870;SDS011;53780;44.998;9.926;2023-07-13T13:43:38;10.93;;;4.40;;
66870;SDS011;53780;44.998;9.926;2023-07-13T13:46:42;11.68;;;4.10;;
66870;SDS011;53780;44.998;9.926;2023-07-13T13:49:51;7.47;;;3.70;;
66870;SDS011;53780;44.998;9.926;2023-07-13T13:52:56;9.55;;;3.65;;
66870;SDS011;53780;44.998;9.926;2023-07-13T13:56:00;9.82;;;3.85;;
66870;SDS011;53780;44.998;9.926;2023-07-13T13:59:04;8.48;;;3.75;;
66870;SDS011;53780;44.998;9.926;2023-07-13T14:02:27;6.53;;;3.42;;
66870;SDS011;53780;44.998;9.926;2023-07-13T14:05:34;7.77;;;3.33;;
66870;SDS011;53780;44.998;9.926;2023-07-13T14:08:38;11.68;;;3.70;;
66870;SDS011;53780;44.998;9.926;2023-07-13T14:11:42;8.65;;;3.80;;
66870;SDS011;53780;44.998;9.926;2023-07-13T14:14:46;8.25;;;3.80;;
66870;SDS011;53780;44.998;9.926;2023-07-13T14:17:50;8.75;;;3.40;;
66870;SDS011;53780;44.998;9.926;2023-07-13T14:20:54;9.57;;;4.30;;
66870;SDS011;53780;44.998;9.926;2023-07-13T14:23:58;9.13;;;4.15;;
66870;SDS011;53780;44.998;9.926;2023-07-13T14:27:02;11.00;;;4.00;;
66870;SDS011;53780;44.998;9.926;2023-07-13T14:33:17;7.35;;;3.80;;
66870;SDS011;53780;44.998;9.926;2023-07-13T14:36:26;9.57;;;3.87;;
66870;SDS011;53780;44.998;9.926;2023-07-13T14:39:32;9.80;;;4.15;;
66870;SDS011;53780;44.998;9.926;2023-07-13T14:42:36;10.30;;;3.72;;
66870;SDS011;53780;44.998;9.926;2023-07-13T14:45:41;11.23;;;3.65;;
66870;SDS011;53780;44.998;9.926;2023-07-13T14:48:48;8.73;;;3.65;;
66870;SDS011;53780;44.998;9.926;2023-07-13T14:51:52;8.70;;;3.40;;
66870;SDS011;53780;44.998;9.926;2023-07-13T14:54:57;8.57;;;3.33;;
66870;SDS011;53780;44.998;9.926;2023-07-13T14:58:01;9.32;;;2.97;;
66870;SDS011;53780;44.998;9.926;2023-07-13T15:01:07;9.73;;;3.50;;
66870;SDS011;53780;44.998;9.926;2023-07-13T15:04:15;12.00;;;3.40;;
66870;SDS011;53780;44.998;9.926;2023-07-13T15:07:21;7.07;;;3.17;;
66870;SDS011;53780;44.998;9.926;2023-07-13T15:10:28;6.82;;;3.42;;
66870;SDS011;53780;44.998;9.926;2023-07-13T15:13:34;11.88;;;3.83;;
66870;SDS011;53780;44.998;9.926;2023-07-13T15:16:38;8.93;;;3.50;;
66870;SDS011;53780;44.998;9.926;2023-07-13T15:19:42;9.80;;;4.00;;
66870;SDS011;53780;44.998;9.926;2023-07-13T15:22:45;11.20;;;4.43;;
66870;SDS011;53780;44.998;9.926;2023-07-13T15:25:52;10.90;;;3.90;;
66870;SDS011;53780;44.998;9.926;2023-07-13T15:28:58;8.00;;;3.80;;
66870;SDS011;53780;44.998;9.926;2023-07-13T15:32:02;7.43;;;3.60;;
66870;SDS011;53780;44.998;9.926;2023-07-13T15:35:12;8.88;;;3.80;;
66870;SDS011;53780;44.998;9.926;2023-07-13T15:38:33;7.37;;;3.33;;
66870;SDS011;53780;44.998;9.926;2023-07-13T15:41:42;7.95;;;3.53;;
66870;SDS011;53780;44.998;9.926;2023-07-13T15:44:48;10.85;;;4.15;;
66870;SDS011;53780;44.998;9.926;2023-07-13T15:47:54;9.13;;;3.75;;
66870;SDS011;53780;44.998;9.926;2023-07-13T15:51:03;10.45;;;3.35;;
66870;SDS011;53780;44.998;9.926;2023-07-13T15:54:10;8.90;;;3.40;;
66870;SDS011;53780;44.998;9.926;2023-07-13T15:57:19;12.75;;;3.95;;
66870;SDS011;53780;44.998;9.926;2023-07-13T16:00:24;13.18;;;3.88;;
66870;SDS011;53780;44.998;9.926;2023-07-13T16:03:30;9.82;;;3.85;;
66870;SDS011;53780;44.998;9.926;2023-07-13T16:06:35;11.45;;;3.95;;
66870;SDS011;53780;44.998;9.926;2023-07-13T16:09:40;9.43;;;3.83;;
66870;SDS011;53780;44.998;9.926;2023-07-13T16:12:44;9.45;;;3.80;;
66870;SDS011;53780;44.998;9.926;2023-07-13T16:15:50;10.43;;;4.07;;
66870;SDS011;53780;44.998;9.926;2023-07-13T16:18:55;13.55;;;4.40;;
66870;SDS011;53780;44.998;9.926;2023-07-13T16:22:01;10.57;;;4.00;;
66870;SDS011;53780;44.998;9.926;2023-07-13T16:25:15;17.63;;;4.10;;
66870;SDS011;53780;44.998;9.926;2023-07-13T16:28:21;10.57;;;3.40;;
66870;SDS011;53780;44.998;9.926;2023-07-13T16:31:25;13.98;;;4.10;;
66870;SDS011;53780;44.998;9.926;2023-07-13T16:34:34;11.13;;;4.07;;
66870;SDS011;53780;44.998;9.926;2023-07-13T16:37:39;11.93;;;3.95;;
66870;SDS011;53780;44.998;9.926;2023-07-13T16:40:43;12.27;;;3.77;;
66870;SDS011;53780;44.998;9.926;2023-07-13T16:43:47;10.20;;;3.75;;
66870;SDS011;53780;44.998;9.926;2023-07-13T16:46:52;10.15;;;3.80;;
66870;SDS011;53780;44.998;9.926;2023-07-13T16:49:59;12.88;;;4.18;;
66870;SDS011;53780;44.998;9.926;2023-07-13T16:53:15;10.95;;;4.20;;
66870;SDS011;53780;44.998;9.926;2023-07-13T16:56:25;10.87;;;3.70;;
66870;SDS011;53780;44.998;9.926;2023-07-13T16:59:30;9.57;;;3.78;;
66870;SDS011;53780;44.998;9.926;2023-07-13T17:02:36;9.13;;;3.95;;
66870;SDS011;53780;44.998;9.926;2023-07-13T17:05:42;9.52;;;3.75;;
66870;SDS011;53780;44.998;9.926;2023-07-13T17:08:46;10.35;;;3.75;;
66870;SDS011;53780;44.998;9.926;2023-07-13T17:11:50;10.23;;;3.87;;
66870;SDS011;53780;44.998;9.926;2023-07-13T17:14:57;9.93;;;3.80;;
66870;SDS011;53780;44.998;9.926;2023-07-13T17:18:04;12.70;;;4.03;;
66870;SDS011;53780;44.998;9.926;2023-07-13T17:21:13;8.32;;;3.85;;
66870;SDS011;53780;44.998;9.926;2023-07-13T17:24:24;11.43;;;3.83;;
66870;SDS011;53780;44.998;9.926;2023-07-13T17:27:30;9.60;;;3.30;;
66870;SDS011;53780;44.998;9.926;2023-07-13T17:30:36;7.90;;;3.30;;
66870;SDS011;53780;44.998;9.926;2023-07-13T17:33:43;8.07;;;3.35;;
66870;SDS011;53780;44.998;9.926;2023-07-13T17:36:49;12.20;;;3.80;;
66870;SDS011;53780;44.998;9.926;2023-07-13T17:39:53;11.57;;;4.47;;
66870;SDS011;53780;44.998;9.926;2023-07-13T17:42:57;10.53;;;4.23;;
66870;SDS011;53780;44.998;9.926;2023-07-13T17:46:03;11.23;;;3.45;;
66870;SDS011;53780;44.998;9.926;2023-07-13T17:49:18;10.25;;;3.90;;
66870;SDS011;53780;44.998;9.926;2023-07-13T17:52:24;13.52;;;4.18;;
66870;SDS011;53780;44.998;9.926;2023-07-13T17:55:32;12.23;;;4.15;;
66870;SDS011;53780;44.998;9.926;2023-07-13T17:58:37;13.07;;;4.17;;
66870;SDS011;53780;44.998;9.926;2023-07-13T18:01:41;10.10;;;3.70;;
66870;SDS011;53780;44.998;9.926;2023-07-13T18:04:46;10.68;;;4.15;;
66870;SDS011;53780;44.998;9.926;2023-07-13T18:07:51;13.00;;;3.80;;
66870;SDS011;53780;44.998;9.926;2023-07-13T18:10:58;9.98;;;3.70;;
66870;SDS011;53780;44.998;9.926;2023-07-13T18:14:03;12.43;;;4.00;;
66870;SDS011;53780;44.998;9.926;2023-07-13T18:17:10;9.30;;;3.78;;
66870;SDS011;53780;44.998;9.926;2023-07-13T18:20:20;11.80;;;4.50;;
66870;SDS011;53780;44.998;9.926;2023-07-13T18:23:25;12.27;;;4.15;;
66870;SDS011;53780;44.998;9.926;2023-07-13T18:26:29;10.10;;;4.05;;
66870;SDS011;53780;44.998;9.926;2023-07-13T18:29:33;10.50;;;3.87;;
66870;SDS011;53780;44.998;9.926;2023-07-13T18:32:41;12.93;;;4.63;;
66870;SDS011;53780;44.998;9.926;2023-07-13T18:36:27;13.93;;;4.50;;
66870;SDS011;53780;44.998;9.926;2023-07-13T18:39:31;14.77;;;4.95;;
66870;SDS011;53780;44.998;9.926;2023-07-13T18:42:36;16.25;;;6.28;;
66870;SDS011;53780;44.998;9.926;2023-07-13T18:45:39;13.43;;;5.67;;
66870;SDS011;53780;44.998;9.926;2023-07-13T18:48:44;15.77;;;6.13;;
66870;SDS011;53780;44.998;9.926;2023-07-13T18:51:49;16.77;;;7.13;;
66870;SDS011;53780;44.998;9.926;2023-07-13T18:54:54;11.77;;;5.32;;
66870;SDS011;53780;44.998;9.926;2023-07-13T18:57:57;12.73;;;5.45;;
66870;SDS011;53780;44.998;9.926;2023-07-13T19:01:05;11.07;;;4.97;;